.
Local / Fort Wayne - NE Ind.

U N D E R   C O N S T R U C T I O N

Local Weather
Fort Wayne – NE Indiana

Northern Indiana (IWX) Radar

Latest IWX NEXRAD
Base Reflectivity



Latest IWX NEXRAD
Base Velocity

Indiana-Ohio Visible Satellite

For infrared and water vapor imagery, see Great Lakes - Midwest.

Current Conditions

Recent report from the Fort Wayne International Airport

Aug 20, 2018 - 06:54 AM EDT / 2018.08.20 1054 UTC


The skies are mostly cloudy. The temperature is 64.0 F (17.8 C) and the dew point is 63.0 F (17.2 C), giving a relative humidity of 96%. The barometric pressure is 29.99 in. Hg (1015 hPa). The wind is from the E (080 degrees) at 7 MPH (6 KT), and the visibility is 8 mile(s).

KFWA 201054Z 08006KT 8SM BKN250 18/17 A2999 RMK AO2 SLP151 T01780172

Local Weather — Contents

Local Weather — Links

CoCoRaHS
IN-AL-39
A2 Web Hosting
Creative Commons License
GoDaddy
Look for:

loaded 2018-08-20 07:32:12 • last modified 2017-02-11 13:27:36
Privacy PolicyDisclaimer
• wx.awcolley.com is powered by PmWiki v.2002016 •
• all content (unless otherwise noted) © 2018 A W Colley